createdAt,value
2023-04-18T00:01:03.266Z,6.80
2023-04-18T00:06:05.941Z,7.35
2023-04-18T00:11:07.767Z,7.47
2023-04-18T00:16:09.544Z,7.35
2023-04-18T00:21:11.626Z,7.05
2023-04-18T00:26:13.540Z,7.00
2023-04-18T00:31:16.127Z,7.63
2023-04-18T00:36:17.864Z,6.85
2023-04-18T00:41:21.880Z,7.30
2023-04-18T00:46:23.751Z,6.93
2023-04-18T00:51:25.868Z,7.05
2023-04-18T00:56:29.425Z,7.72
2023-04-18T01:01:33.798Z,7.28
2023-04-18T01:06:36.985Z,7.40
2023-04-18T01:11:38.748Z,7.63
2023-04-18T01:16:40.500Z,7.45
2023-04-18T01:21:44.003Z,7.68
2023-04-18T01:26:48.252Z,7.45
2023-04-18T01:31:50.201Z,7.78
2023-04-18T01:36:52.036Z,7.80
2023-04-18T01:41:53.806Z,7.57
2023-04-18T01:46:55.759Z,7.93
2023-04-18T01:51:57.567Z,8.07
2023-04-18T01:56:59.356Z,7.85
2023-04-18T02:02:01.203Z,8.15
2023-04-18T02:07:03.117Z,7.63
2023-04-18T02:12:05.008Z,7.40
2023-04-18T02:17:06.833Z,7.55
2023-04-18T02:22:08.560Z,8.15
2023-04-18T02:27:11.198Z,8.02
2023-04-18T02:32:13.071Z,7.63
2023-04-18T02:37:18.029Z,8.30
2023-04-18T02:42:19.895Z,8.20
2023-04-18T02:47:21.833Z,7.82
2023-04-18T02:52:25.534Z,8.30
2023-04-18T02:57:27.346Z,9.20
2023-04-18T03:02:53.172Z,8.10
2023-04-18T03:08:13.648Z,8.18
2023-04-18T03:13:17.014Z,8.77
2023-04-18T03:18:19.056Z,8.55
2023-04-18T03:23:22.003Z,7.72
2023-04-18T03:28:23.950Z,8.55
2023-04-18T03:33:28.871Z,8.13
2023-04-18T03:38:41.510Z,8.02
2023-04-18T03:43:43.851Z,8.25
2023-04-18T03:48:46.605Z,8.40
2023-04-18T03:53:48.526Z,8.55
2023-04-18T03:58:52.090Z,8.38
2023-04-18T04:03:55.622Z,9.00
2023-04-18T04:08:59.316Z,8.80
2023-04-18T04:14:02.337Z,8.45
2023-04-18T04:19:11.569Z,9.60
2023-04-18T04:24:20.520Z,8.88
2023-04-18T04:29:23.908Z,8.57
2023-04-18T04:34:27.048Z,8.80
2023-04-18T04:39:29.499Z,9.32
2023-04-18T04:44:53.671Z,9.10
2023-04-18T04:49:56.857Z,10.10
2023-04-18T04:54:58.591Z,9.00
2023-04-18T05:00:01.264Z,9.43
2023-04-18T05:05:03.545Z,10.00
2023-04-18T05:10:05.693Z,9.52
2023-04-18T05:15:07.878Z,9.95
2023-04-18T05:20:11.605Z,10.23
2023-04-18T05:25:13.645Z,9.02
2023-04-18T05:30:17.166Z,9.40
2023-04-18T05:35:19.481Z,10.27
2023-04-18T05:40:22.273Z,10.55
2023-04-18T05:45:24.514Z,11.95
2023-04-18T05:50:27.522Z,12.90
2023-04-18T05:55:30.044Z,13.65
2023-04-18T06:00:32.225Z,14.45
2023-04-18T06:05:34.159Z,13.93
2023-04-18T06:10:37.749Z,12.77
2023-04-18T06:15:41.074Z,13.80
2023-04-18T06:20:44.047Z,14.52
2023-04-18T06:25:45.853Z,14.00
2023-04-18T06:30:47.606Z,12.18
2023-04-18T06:35:49.379Z,13.48
2023-04-18T06:40:51.207Z,13.13
2023-04-18T06:45:53.017Z,12.80
2023-04-18T06:50:54.910Z,12.85
2023-04-18T06:55:56.767Z,12.40
2023-04-18T07:00:58.724Z,11.93
2023-04-18T07:06:00.538Z,12.23
2023-04-18T07:11:02.459Z,10.82
2023-04-18T07:16:04.331Z,10.98
2023-04-18T07:21:09.453Z,10.32
2023-04-18T07:26:13.385Z,9.68
2023-04-18T07:31:16.735Z,9.00
2023-04-18T07:36:18.699Z,9.80
2023-04-18T07:41:20.521Z,9.65
2023-04-18T07:46:22.341Z,8.85
2023-04-18T07:51:26.653Z,9.27
2023-04-18T07:56:28.446Z,9.10
2023-04-18T08:01:30.267Z,8.98
2023-04-18T08:06:32.258Z,8.30
2023-04-18T08:11:34.527Z,9.90
2023-04-18T08:16:36.831Z,9.45
2023-04-18T08:21:39.378Z,9.45
2023-04-18T08:26:41.128Z,9.50
2023-04-18T08:31:42.944Z,9.38
2023-04-18T08:36:44.732Z,10.18
2023-04-18T08:41:53.960Z,10.45
2023-04-18T08:46:56.398Z,10.52
2023-04-18T08:52:01.148Z,9.90
2023-04-18T08:57:08.805Z,10.40
2023-04-18T09:02:11.890Z,11.02
2023-04-18T09:07:15.934Z,10.15
2023-04-18T09:12:23.421Z,10.48
2023-04-18T09:17:46.909Z,10.15
2023-04-18T09:22:52.535Z,11.10
2023-04-18T09:27:54.300Z,10.40
2023-04-18T09:33:00.501Z,11.60
2023-04-18T09:38:02.980Z,10.27
2023-04-18T09:43:20.598Z,10.50
2023-04-18T09:48:22.306Z,10.27
2023-04-18T09:53:24.688Z,10.43
2023-04-18T09:58:32.997Z,9.45
2023-04-18T10:03:44.441Z,8.95
2023-04-18T10:08:49.158Z,8.57
2023-04-18T10:13:55.961Z,7.85
2023-04-18T10:18:58.445Z,7.65
2023-04-18T10:24:00.249Z,7.90
2023-04-18T10:29:02.618Z,6.95
2023-04-18T10:34:07.484Z,7.57
2023-04-18T10:39:26.040Z,7.45
2023-04-18T10:44:28.013Z,6.50
2023-04-18T10:49:32.964Z,6.60
2023-04-18T10:54:43.837Z,6.65
2023-04-18T10:59:50.673Z,5.70
2023-04-18T11:05:06.849Z,6.35
2023-04-18T11:10:09.848Z,5.57
2023-04-18T11:15:22.682Z,5.90
2023-04-18T11:20:24.635Z,4.90
2023-04-18T11:25:32.103Z,4.97
2023-04-18T11:30:39.076Z,4.93
2023-04-18T11:35:44.519Z,5.05
2023-04-18T11:40:50.556Z,5.15
2023-04-18T11:46:00.003Z,5.00
2023-04-18T11:51:01.930Z,4.53
2023-04-18T11:56:05.019Z,4.65
2023-04-18T12:01:20.125Z,5.05
2023-04-18T12:06:24.305Z,4.93
2023-04-18T12:11:26.346Z,5.28
2023-04-18T12:16:28.404Z,5.63
2023-04-18T12:21:33.115Z,5.82
2023-04-18T12:26:34.913Z,6.47
2023-04-18T12:31:36.738Z,6.68
2023-04-18T12:36:38.632Z,6.50
2023-04-18T12:41:40.428Z,6.65
2023-04-18T12:46:42.321Z,7.88
2023-04-18T12:51:44.693Z,9.43
2023-04-18T12:56:46.488Z,7.05
2023-04-18T13:01:48.260Z,6.65
2023-04-18T13:06:50.058Z,7.10
2023-04-18T13:11:51.809Z,7.40
2023-04-18T13:16:53.604Z,6.20
2023-04-18T13:21:55.868Z,6.50
2023-04-18T13:26:57.665Z,6.50
2023-04-18T13:31:59.473Z,7.18
2023-04-18T13:37:01.541Z,7.55
2023-04-18T13:42:04.406Z,7.50
2023-04-18T13:47:07.713Z,7.15
2023-04-18T13:52:09.624Z,7.55
2023-04-18T13:57:11.797Z,7.97
2023-04-18T14:02:13.748Z,8.75
2023-04-18T14:07:15.653Z,8.43
2023-04-18T14:12:17.396Z,8.15
2023-04-18T14:17:19.187Z,9.38
2023-04-18T14:22:21.179Z,8.93
2023-04-18T14:27:23.109Z,9.95
2023-04-18T14:32:24.892Z,9.30
2023-04-18T14:37:26.696Z,8.82
2023-04-18T14:42:28.436Z,8.52
2023-04-18T14:47:31.950Z,8.52
2023-04-18T14:52:33.777Z,9.30
2023-04-18T14:57:37.137Z,9.05
2023-04-18T15:02:39.737Z,8.27
2023-04-18T15:07:43.527Z,8.65
2023-04-18T15:12:46.906Z,8.98
2023-04-18T15:17:48.670Z,8.98
2023-04-18T15:22:50.688Z,8.30
2023-04-18T15:27:52.948Z,8.48
2023-04-18T15:32:54.826Z,8.48
2023-04-18T15:37:57.711Z,8.82
2023-04-18T15:42:59.718Z,8.40
2023-04-18T15:48:02.195Z,8.05
2023-04-18T15:53:04.035Z,7.97
2023-04-18T15:58:06.876Z,7.88
2023-04-18T16:03:10.465Z,7.20
2023-04-18T16:08:12.320Z,6.82
2023-04-18T16:13:14.171Z,7.13
2023-04-18T16:18:15.908Z,6.80
2023-04-18T16:23:17.805Z,6.55
2023-04-18T16:28:19.566Z,6.85
2023-04-18T16:33:24.771Z,6.25
2023-04-18T16:38:27.469Z,6.10
2023-04-18T16:43:31.086Z,6.32
2023-04-18T16:48:32.872Z,6.35
2023-04-18T16:53:34.714Z,6.15
2023-04-18T16:58:36.475Z,5.82
2023-04-18T17:03:38.591Z,5.38
2023-04-18T17:08:40.631Z,5.93
2023-04-18T17:13:42.554Z,5.43
2023-04-18T17:18:44.316Z,5.25
2023-04-18T17:23:46.099Z,5.35
2023-04-18T17:28:47.819Z,5.22
2023-04-18T17:33:51.211Z,5.68
2023-04-18T17:38:53.163Z,6.18
2023-04-18T17:43:54.941Z,5.60
2023-04-18T17:48:57.066Z,5.35
2023-04-18T17:54:01.478Z,5.47
2023-04-18T17:59:03.339Z,5.78
2023-04-18T18:04:06.260Z,5.32
2023-04-18T18:09:08.301Z,5.95
2023-04-18T18:14:10.607Z,6.15
2023-04-18T18:19:14.533Z,6.20
2023-04-18T18:24:18.700Z,6.15
2023-04-18T18:29:20.531Z,6.07
2023-04-18T18:34:22.841Z,5.60
2023-04-18T18:39:24.594Z,6.47
2023-04-18T18:44:26.561Z,6.15
2023-04-18T18:49:28.522Z,5.70
2023-04-18T18:54:31.581Z,6.00
2023-04-18T18:59:33.307Z,6.70
2023-04-18T19:04:35.147Z,6.75
2023-04-18T19:09:37.050Z,6.90
2023-04-18T19:14:39.790Z,6.70
2023-04-18T19:19:43.577Z,6.63
2023-04-18T19:24:45.444Z,6.80
2023-04-18T19:29:47.175Z,7.10
2023-04-18T19:34:48.960Z,6.82
2023-04-18T19:39:50.752Z,7.10
2023-04-18T19:44:52.509Z,6.95
2023-04-18T19:49:54.276Z,7.50
2023-04-18T19:54:56.182Z,7.55
2023-04-18T19:59:57.910Z,7.70
2023-04-18T20:04:59.885Z,7.70
2023-04-18T20:10:01.947Z,7.70
2023-04-18T20:15:03.935Z,7.90
2023-04-18T20:20:08.901Z,7.78
2023-04-18T20:25:10.832Z,8.45
2023-04-18T20:30:12.866Z,7.85
2023-04-18T20:35:14.653Z,7.45
2023-04-18T20:40:16.633Z,7.18
2023-04-18T20:45:18.441Z,7.20
2023-04-18T20:50:20.655Z,7.28
2023-04-18T20:55:22.380Z,6.60
2023-04-18T21:00:24.536Z,6.95
2023-04-18T21:05:26.286Z,6.47
2023-04-18T21:10:28.068Z,7.32
2023-04-18T21:15:29.903Z,6.97
2023-04-18T21:20:31.772Z,6.97
2023-04-18T21:25:33.639Z,6.25
2023-04-18T21:30:35.372Z,6.05
2023-04-18T21:35:37.092Z,6.80
2023-04-18T21:40:38.834Z,6.70
2023-04-18T21:45:40.737Z,5.93
2023-04-18T21:50:43.178Z,6.00
2023-04-18T21:55:44.978Z,5.75
2023-04-18T22:00:46.756Z,5.95
2023-04-18T22:05:48.497Z,5.68
2023-04-18T22:10:50.592Z,5.72
2023-04-18T22:15:52.371Z,6.25
2023-04-18T22:20:54.871Z,5.80
2023-04-18T22:25:56.713Z,5.68
2023-04-18T22:30:58.675Z,5.80
2023-04-18T22:36:00.864Z,5.90
2023-04-18T22:41:02.574Z,5.88
2023-04-18T22:46:04.354Z,5.70
2023-04-18T22:51:06.253Z,5.22
2023-04-18T22:56:08.136Z,5.45
2023-04-18T23:01:09.897Z,4.90
2023-04-18T23:06:11.702Z,4.93
2023-04-18T23:11:13.652Z,5.00
2023-04-18T23:16:15.481Z,4.82
2023-04-18T23:21:17.579Z,5.03
2023-04-18T23:26:19.326Z,5.00
2023-04-18T23:31:21.870Z,4.68
2023-04-18T23:36:23.681Z,4.97
2023-04-18T23:41:25.425Z,5.00
2023-04-18T23:46:27.697Z,5.60
2023-04-18T23:51:29.477Z,5.90
2023-04-18T23:56:31.191Z,5.85
